sensor_id;sensor_type;location;lat;lon;timestamp;temperature;humidity
4306;DHT22;2166;49.926;8.608;2023-11-21T00:01:21;8.90;67.70
4306;DHT22;2166;49.926;8.608;2023-11-21T00:03:50;8.90;67.70
4306;DHT22;2166;49.926;8.608;2023-11-21T00:06:22;8.90;67.70
4306;DHT22;2166;49.926;8.608;2023-11-21T00:08:50;8.90;67.70
4306;DHT22;2166;49.926;8.608;2023-11-21T00:11:18;8.90;67.70
4306;DHT22;2166;49.926;8.608;2023-11-21T00:13:48;8.80;67.80
4306;DHT22;2166;49.926;8.608;2023-11-21T00:16:17;8.80;67.80
4306;DHT22;2166;49.926;8.608;2023-11-21T00:18:45;8.80;67.90
4306;DHT22;2166;49.926;8.608;2023-11-21T00:21:14;8.80;67.90
4306;DHT22;2166;49.926;8.608;2023-11-21T00:23:43;8.80;68.00
4306;DHT22;2166;49.926;8.608;2023-11-21T00:26:11;8.80;68.00
4306;DHT22;2166;49.926;8.608;2023-11-21T00:28:40;8.80;68.00
4306;DHT22;2166;49.926;8.608;2023-11-21T00:31:11;8.80;68.00
4306;DHT22;2166;49.926;8.608;2023-11-21T00:33:39;8.80;67.40
4306;DHT22;2166;49.926;8.608;2023-11-21T00:36:09;8.80;67.40
4306;DHT22;2166;49.926;8.608;2023-11-21T00:38:37;8.80;67.40
4306;DHT22;2166;49.926;8.608;2023-11-21T00:41:07;8.80;67.40
4306;DHT22;2166;49.926;8.608;2023-11-21T00:43:35;8.80;67.50
4306;DHT22;2166;49.926;8.608;2023-11-21T00:46:05;8.80;67.50
4306;DHT22;2166;49.926;8.608;2023-11-21T00:48:35;8.80;67.50
4306;DHT22;2166;49.926;8.608;2023-11-21T00:51:04;8.70;67.50
4306;DHT22;2166;49.926;8.608;2023-11-21T00:53:35;8.80;67.60
4306;DHT22;2166;49.926;8.608;2023-11-21T00:56:03;8.80;67.60
4306;DHT22;2166;49.926;8.608;2023-11-21T00:58:33;8.80;67.60
4306;DHT22;2166;49.926;8.608;2023-11-21T01:01:03;8.80;67.60
4306;DHT22;2166;49.926;8.608;2023-11-21T01:03:31;8.80;67.50
4306;DHT22;2166;49.926;8.608;2023-11-21T01:06:01;8.80;67.50
4306;DHT22;2166;49.926;8.608;2023-11-21T01:08:30;8.80;67.50
4306;DHT22;2166;49.926;8.608;2023-11-21T01:10:58;8.80;67.50
4306;DHT22;2166;49.926;8.608;2023-11-21T01:13:28;8.80;67.50
4306;DHT22;2166;49.926;8.608;2023-11-21T01:15:59;8.80;67.60
4306;DHT22;2166;49.926;8.608;2023-11-21T01:18:28;8.80;67.60
4306;DHT22;2166;49.926;8.608;2023-11-21T01:20:58;8.80;67.70
4306;DHT22;2166;49.926;8.608;2023-11-21T01:23:28;8.80;67.70
4306;DHT22;2166;49.926;8.608;2023-11-21T01:25:57;8.80;67.60
4306;DHT22;2166;49.926;8.608;2023-11-21T01:28:26;8.80;67.60
4306;DHT22;2166;49.926;8.608;2023-11-21T01:30:55;8.80;67.60
4306;DHT22;2166;49.926;8.608;2023-11-21T01:33:23;8.80;67.70
4306;DHT22;2166;49.926;8.608;2023-11-21T01:35:53;8.80;67.60
4306;DHT22;2166;49.926;8.608;2023-11-21T01:38:22;8.80;67.60
4306;DHT22;2166;49.926;8.608;2023-11-21T01:40:52;8.80;67.60
4306;DHT22;2166;49.926;8.608;2023-11-21T01:43:20;8.90;67.60
4306;DHT22;2166;49.926;8.608;2023-11-21T01:45:49;8.90;67.60
4306;DHT22;2166;49.926;8.608;2023-11-21T01:48:18;8.90;67.60
4306;DHT22;2166;49.926;8.608;2023-11-21T01:50:47;8.90;67.60
4306;DHT22;2166;49.926;8.608;2023-11-21T01:53:16;8.90;67.60
4306;DHT22;2166;49.926;8.608;2023-11-21T01:55:45;8.90;67.60
4306;DHT22;2166;49.926;8.608;2023-11-21T01:58:16;9.00;67.60
4306;DHT22;2166;49.926;8.608;2023-11-21T02:00:46;9.00;67.60
4306;DHT22;2166;49.926;8.608;2023-11-21T02:03:16;9.00;67.50
4306;DHT22;2166;49.926;8.608;2023-11-21T02:05:45;9.00;67.50
4306;DHT22;2166;49.926;8.608;2023-11-21T02:08:14;9.00;67.30
4306;DHT22;2166;49.926;8.608;2023-11-21T02:10:43;9.10;67.30
4306;DHT22;2166;49.926;8.608;2023-11-21T02:13:13;9.10;67.20
4306;DHT22;2166;49.926;8.608;2023-11-21T02:15:44;9.10;67.10
4306;DHT22;2166;49.926;8.608;2023-11-21T02:18:16;9.10;67.10
4306;DHT22;2166;49.926;8.608;2023-11-21T02:20:44;9.10;67.10
4306;DHT22;2166;49.926;8.608;2023-11-21T02:23:15;9.10;67.10
4306;DHT22;2166;49.926;8.608;2023-11-21T02:25:45;9.20;67.10
4306;DHT22;2166;49.926;8.608;2023-11-21T02:28:16;9.30;67.10
4306;DHT22;2166;49.926;8.608;2023-11-21T02:30:54;9.40;67.10
4306;DHT22;2166;49.926;8.608;2023-11-21T02:33:25;9.50;67.10
4306;DHT22;2166;49.926;8.608;2023-11-21T02:35:55;9.60;66.90
4306;DHT22;2166;49.926;8.608;2023-11-21T02:38:25;9.70;66.90
4306;DHT22;2166;49.926;8.608;2023-11-21T02:40:58;9.80;66.80
4306;DHT22;2166;49.926;8.608;2023-11-21T02:43:29;9.80;67.40
4306;DHT22;2166;49.926;8.608;2023-11-21T02:45:58;9.70;67.20
4306;DHT22;2166;49.926;8.608;2023-11-21T02:48:26;9.70;67.10
4306;DHT22;2166;49.926;8.608;2023-11-21T02:50:54;9.60;67.10
4306;DHT22;2166;49.926;8.608;2023-11-21T02:53:22;9.70;67.10
4306;DHT22;2166;49.926;8.608;2023-11-21T02:55:52;9.70;67.10
4306;DHT22;2166;49.926;8.608;2023-11-21T02:58:21;9.80;67.20
4306;DHT22;2166;49.926;8.608;2023-11-21T03:00:50;9.90;67.20
4306;DHT22;2166;49.926;8.608;2023-11-21T03:03:20;9.90;67.10
4306;DHT22;2166;49.926;8.608;2023-11-21T03:05:51;10.00;67.20
4306;DHT22;2166;49.926;8.608;2023-11-21T03:08:21;10.10;67.20
4306;DHT22;2166;49.926;8.608;2023-11-21T03:10:49;10.10;67.20
4306;DHT22;2166;49.926;8.608;2023-11-21T03:13:19;10.10;67.00
4306;DHT22;2166;49.926;8.608;2023-11-21T03:15:48;10.10;67.00
4306;DHT22;2166;49.926;8.608;2023-11-21T03:18:16;10.10;67.00
4306;DHT22;2166;49.926;8.608;2023-11-21T03:20:47;10.20;67.10
4306;DHT22;2166;49.926;8.608;2023-11-21T03:23:15;10.10;67.00
4306;DHT22;2166;49.926;8.608;2023-11-21T03:25:44;10.00;66.90
4306;DHT22;2166;49.926;8.608;2023-11-21T03:28:12;10.00;66.90
4306;DHT22;2166;49.926;8.608;2023-11-21T03:30:42;10.10;67.00
4306;DHT22;2166;49.926;8.608;2023-11-21T03:33:12;10.10;67.10
4306;DHT22;2166;49.926;8.608;2023-11-21T03:35:40;10.10;67.00
4306;DHT22;2166;49.926;8.608;2023-11-21T03:38:12;10.10;67.10
4306;DHT22;2166;49.926;8.608;2023-11-21T03:40:40;10.10;67.00
4306;DHT22;2166;49.926;8.608;2023-11-21T03:43:08;10.20;67.10
4306;DHT22;2166;49.926;8.608;2023-11-21T03:45:37;10.20;67.00
4306;DHT22;2166;49.926;8.608;2023-11-21T03:48:09;10.30;67.00
4306;DHT22;2166;49.926;8.608;2023-11-21T03:50:40;10.40;66.90
4306;DHT22;2166;49.926;8.608;2023-11-21T03:53:09;10.40;66.90
4306;DHT22;2166;49.926;8.608;2023-11-21T03:55:37;10.40;66.90
4306;DHT22;2166;49.926;8.608;2023-11-21T03:58:06;10.40;66.90
4306;DHT22;2166;49.926;8.608;2023-11-21T04:00:34;10.40;66.90
4306;DHT22;2166;49.926;8.608;2023-11-21T04:03:07;10.40;66.90
4306;DHT22;2166;49.926;8.608;2023-11-21T04:05:36;10.40;66.90
4306;DHT22;2166;49.926;8.608;2023-11-21T04:08:04;10.40;66.90
4306;DHT22;2166;49.926;8.608;2023-11-21T04:10:32;10.40;66.90
4306;DHT22;2166;49.926;8.608;2023-11-21T04:13:01;10.40;66.90
4306;DHT22;2166;49.926;8.608;2023-11-21T04:15:29;10.40;66.90
4306;DHT22;2166;49.926;8.608;2023-11-21T04:17:57;10.40;66.90
4306;DHT22;2166;49.926;8.608;2023-11-21T04:20:27;10.40;66.90
4306;DHT22;2166;49.926;8.608;2023-11-21T04:22:56;10.40;66.90
4306;DHT22;2166;49.926;8.608;2023-11-21T04:25:25;10.40;67.00
4306;DHT22;2166;49.926;8.608;2023-11-21T04:27:54;10.40;67.00
4306;DHT22;2166;49.926;8.608;2023-11-21T04:30:22;10.50;67.00
4306;DHT22;2166;49.926;8.608;2023-11-21T04:32:50;10.50;67.00
4306;DHT22;2166;49.926;8.608;2023-11-21T04:35:19;10.50;67.00
4306;DHT22;2166;49.926;8.608;2023-11-21T04:37:48;10.50;67.00
4306;DHT22;2166;49.926;8.608;2023-11-21T04:40:18;10.50;67.00
4306;DHT22;2166;49.926;8.608;2023-11-21T04:42:48;10.50;67.00
4306;DHT22;2166;49.926;8.608;2023-11-21T04:45:16;10.50;67.00
4306;DHT22;2166;49.926;8.608;2023-11-21T04:47:44;10.50;67.00
4306;DHT22;2166;49.926;8.608;2023-11-21T04:50:13;10.50;67.00
4306;DHT22;2166;49.926;8.608;2023-11-21T04:52:41;10.50;67.00
4306;DHT22;2166;49.926;8.608;2023-11-21T04:55:12;10.50;67.10
4306;DHT22;2166;49.926;8.608;2023-11-21T04:57:42;10.50;67.00
4306;DHT22;2166;49.926;8.608;2023-11-21T05:00:12;10.50;67.00
4306;DHT22;2166;49.926;8.608;2023-11-21T05:02:41;10.50;67.00
4306;DHT22;2166;49.926;8.608;2023-11-21T05:05:10;10.50;67.00
4306;DHT22;2166;49.926;8.608;2023-11-21T05:07:39;10.40;67.00
4306;DHT22;2166;49.926;8.608;2023-11-21T05:10:08;10.40;67.00
4306;DHT22;2166;49.926;8.608;2023-11-21T05:12:41;10.40;67.00
4306;DHT22;2166;49.926;8.608;2023-11-21T05:15:13;10.30;67.00
4306;DHT22;2166;49.926;8.608;2023-11-21T05:17:42;10.30;67.00
4306;DHT22;2166;49.926;8.608;2023-11-21T05:20:12;10.20;67.00
4306;DHT22;2166;49.926;8.608;2023-11-21T05:22:41;10.20;67.10
4306;DHT22;2166;49.926;8.608;2023-11-21T05:25:10;10.20;67.10
4306;DHT22;2166;49.926;8.608;2023-11-21T05:27:40;10.10;67.20
4306;DHT22;2166;49.926;8.608;2023-11-21T05:30:09;10.00;67.20
4306;DHT22;2166;49.926;8.608;2023-11-21T05:32:39;10.00;67.20
4306;DHT22;2166;49.926;8.608;2023-11-21T05:35:09;9.90;67.10
4306;DHT22;2166;49.926;8.608;2023-11-21T05:37:42;9.80;67.20
4306;DHT22;2166;49.926;8.608;2023-11-21T05:40:11;9.80;67.20
4306;DHT22;2166;49.926;8.608;2023-11-21T05:42:42;9.80;67.20
4306;DHT22;2166;49.926;8.608;2023-11-21T05:45:10;9.80;67.20
4306;DHT22;2166;49.926;8.608;2023-11-21T05:47:41;9.80;67.20
4306;DHT22;2166;49.926;8.608;2023-11-21T05:50:11;9.70;67.20
4306;DHT22;2166;49.926;8.608;2023-11-21T05:52:44;9.70;67.20
4306;DHT22;2166;49.926;8.608;2023-11-21T05:55:13;9.70;67.20
4306;DHT22;2166;49.926;8.608;2023-11-21T05:57:44;9.70;67.20
4306;DHT22;2166;49.926;8.608;2023-11-21T06:00:14;9.70;67.40
4306;DHT22;2166;49.926;8.608;2023-11-21T06:02:48;9.70;67.20
4306;DHT22;2166;49.926;8.608;2023-11-21T06:05:18;9.70;67.40
4306;DHT22;2166;49.926;8.608;2023-11-21T06:07:47;9.70;67.20
4306;DHT22;2166;49.926;8.608;2023-11-21T06:10:16;9.70;67.20
4306;DHT22;2166;49.926;8.608;2023-11-21T06:12:48;9.80;67.20
4306;DHT22;2166;49.926;8.608;2023-11-21T06:15:16;9.80;67.20
4306;DHT22;2166;49.926;8.608;2023-11-21T06:17:47;9.80;67.20
4306;DHT22;2166;49.926;8.608;2023-11-21T06:20:20;9.80;67.10
4306;DHT22;2166;49.926;8.608;2023-11-21T06:22:50;9.80;67.20
4306;DHT22;2166;49.926;8.608;2023-11-21T06:25:19;9.90;67.20
4306;DHT22;2166;49.926;8.608;2023-11-21T06:27:50;9.90;67.10
4306;DHT22;2166;49.926;8.608;2023-11-21T06:30:20;9.90;67.10
4306;DHT22;2166;49.926;8.608;2023-11-21T06:32:50;9.90;67.10
4306;DHT22;2166;49.926;8.608;2023-11-21T06:35:20;9.90;67.10
4306;DHT22;2166;49.926;8.608;2023-11-21T06:37:49;9.90;67.10
4306;DHT22;2166;49.926;8.608;2023-11-21T06:40:19;9.90;67.20
4306;DHT22;2166;49.926;8.608;2023-11-21T06:42:50;10.00;67.10
4306;DHT22;2166;49.926;8.608;2023-11-21T06:45:18;9.90;67.10
4306;DHT22;2166;49.926;8.608;2023-11-21T06:47:47;9.90;67.10
4306;DHT22;2166;49.926;8.608;2023-11-21T06:50:16;10.00;67.20
4306;DHT22;2166;49.926;8.608;2023-11-21T06:52:45;10.00;67.20
4306;DHT22;2166;49.926;8.608;2023-11-21T06:55:14;10.00;67.20
4306;DHT22;2166;49.926;8.608;2023-11-21T06:57:43;10.00;67.10
4306;DHT22;2166;49.926;8.608;2023-11-21T07:00:15;10.00;67.10
4306;DHT22;2166;49.926;8.608;2023-11-21T07:02:45;10.00;67.20
4306;DHT22;2166;49.926;8.608;2023-11-21T07:05:14;10.10;67.20
4306;DHT22;2166;49.926;8.608;2023-11-21T07:07:42;10.00;67.10
4306;DHT22;2166;49.926;8.608;2023-11-21T07:10:12;10.00;67.10
4306;DHT22;2166;49.926;8.608;2023-11-21T07:12:41;10.10;67.10
4306;DHT22;2166;49.926;8.608;2023-11-21T07:15:09;10.10;67.20
4306;DHT22;2166;49.926;8.608;2023-11-21T07:17:40;10.00;67.20
4306;DHT22;2166;49.926;8.608;2023-11-21T07:20:10;10.10;67.10
4306;DHT22;2166;49.926;8.608;2023-11-21T07:22:39;10.10;67.10
4306;DHT22;2166;49.926;8.608;2023-11-21T07:25:08;10.10;67.20
4306;DHT22;2166;49.926;8.608;2023-11-21T07:27:38;10.10;67.20
4306;DHT22;2166;49.926;8.608;2023-11-21T07:30:07;10.10;67.20
4306;DHT22;2166;49.926;8.608;2023-11-21T07:32:37;10.20;67.20
4306;DHT22;2166;49.926;8.608;2023-11-21T07:35:10;10.20;67.20
4306;DHT22;2166;49.926;8.608;2023-11-21T07:37:39;10.30;67.20
4306;DHT22;2166;49.926;8.608;2023-11-21T07:40:08;10.30;67.20
4306;DHT22;2166;49.926;8.608;2023-11-21T07:42:38;10.40;67.00
4306;DHT22;2166;49.926;8.608;2023-11-21T07:45:10;10.40;67.10
4306;DHT22;2166;49.926;8.608;2023-11-21T07:47:39;10.50;67.10
4306;DHT22;2166;49.926;8.608;2023-11-21T07:50:10;10.40;67.10
4306;DHT22;2166;49.926;8.608;2023-11-21T07:52:40;10.40;67.10
4306;DHT22;2166;49.926;8.608;2023-11-21T07:55:09;10.50;67.00
4306;DHT22;2166;49.926;8.608;2023-11-21T07:57:38;10.50;67.00
4306;DHT22;2166;49.926;8.608;2023-11-21T08:00:07;10.50;67.10
4306;DHT22;2166;49.926;8.608;2023-11-21T08:02:39;10.40;67.00
4306;DHT22;2166;49.926;8.608;2023-11-21T08:05:11;10.50;67.10
4306;DHT22;2166;49.926;8.608;2023-11-21T08:07:51;10.50;67.10
4306;DHT22;2166;49.926;8.608;2023-11-21T08:10:19;10.40;67.10
4306;DHT22;2166;49.926;8.608;2023-11-21T08:12:49;10.40;67.10
4306;DHT22;2166;49.926;8.608;2023-11-21T08:15:18;10.40;67.10
4306;DHT22;2166;49.926;8.608;2023-11-21T08:17:47;10.50;67.10
4306;DHT22;2166;49.926;8.608;2023-11-21T08:20:17;10.50;67.10
4306;DHT22;2166;49.926;8.608;2023-11-21T08:22:46;10.60;67.10
4306;DHT22;2166;49.926;8.608;2023-11-21T08:25:15;10.60;67.10
4306;DHT22;2166;49.926;8.608;2023-11-21T08:27:47;10.70;67.10
4306;DHT22;2166;49.926;8.608;2023-11-21T08:30:16;10.70;67.00
4306;DHT22;2166;49.926;8.608;2023-11-21T08:32:46;10.70;67.00
4306;DHT22;2166;49.926;8.608;2023-11-21T08:35:17;10.80;67.10
4306;DHT22;2166;49.926;8.608;2023-11-21T08:37:45;10.70;67.00
4306;DHT22;2166;49.926;8.608;2023-11-21T08:40:14;10.70;66.90
4306;DHT22;2166;49.926;8.608;2023-11-21T08:42:44;10.70;67.00
4306;DHT22;2166;49.926;8.608;2023-11-21T08:45:15;10.60;66.90
4306;DHT22;2166;49.926;8.608;2023-11-21T08:47:45;10.70;67.00
4306;DHT22;2166;49.926;8.608;2023-11-21T08:50:14;10.80;67.10
4306;DHT22;2166;49.926;8.608;2023-11-21T08:52:48;10.80;67.00
4306;DHT22;2166;49.926;8.608;2023-11-21T08:55:16;10.80;67.00
4306;DHT22;2166;49.926;8.608;2023-11-21T08:57:46;10.90;67.00
4306;DHT22;2166;49.926;8.608;2023-11-21T09:00:16;10.90;67.10
4306;DHT22;2166;49.926;8.608;2023-11-21T09:02:46;11.00;67.00
4306;DHT22;2166;49.926;8.608;2023-11-21T09:05:16;11.00;67.10
4306;DHT22;2166;49.926;8.608;2023-11-21T09:07:47;11.00;67.10
4306;DHT22;2166;49.926;8.608;2023-11-21T09:10:16;11.00;67.00
4306;DHT22;2166;49.926;8.608;2023-11-21T09:12:46;11.10;67.00
4306;DHT22;2166;49.926;8.608;2023-11-21T09:15:14;11.10;67.10
4306;DHT22;2166;49.926;8.608;2023-11-21T09:17:43;11.10;67.00
4306;DHT22;2166;49.926;8.608;2023-11-21T09:20:12;11.00;67.10
4306;DHT22;2166;49.926;8.608;2023-11-21T09:22:42;10.90;67.00
4306;DHT22;2166;49.926;8.608;2023-11-21T09:25:13;10.90;67.00
4306;DHT22;2166;49.926;8.608;2023-11-21T09:27:42;10.90;67.00
4306;DHT22;2166;49.926;8.608;2023-11-21T09:30:13;10.90;67.10
4306;DHT22;2166;49.926;8.608;2023-11-21T09:32:44;10.90;67.10
4306;DHT22;2166;49.926;8.608;2023-11-21T09:35:13;11.00;67.10
4306;DHT22;2166;49.926;8.608;2023-11-21T09:37:44;11.00;67.20
4306;DHT22;2166;49.926;8.608;2023-11-21T09:40:21;11.00;67.10
4306;DHT22;2166;49.926;8.608;2023-11-21T09:42:54;11.00;67.10
4306;DHT22;2166;49.926;8.608;2023-11-21T09:45:28;11.00;67.10
4306;DHT22;2166;49.926;8.608;2023-11-21T09:47:58;11.10;67.70
4306;DHT22;2166;49.926;8.608;2023-11-21T09:50:27;11.20;67.10
4306;DHT22;2166;49.926;8.608;2023-11-21T09:52:58;11.40;67.30
4306;DHT22;2166;49.926;8.608;2023-11-21T09:55:35;11.50;67.70
4306;DHT22;2166;49.926;8.608;2023-11-21T09:58:04;11.70;67.50
4306;DHT22;2166;49.926;8.608;2023-11-21T10:00:34;11.90;68.60
4306;DHT22;2166;49.926;8.608;2023-11-21T10:03:03;12.00;68.70
4306;DHT22;2166;49.926;8.608;2023-11-21T10:05:32;12.10;68.90
4306;DHT22;2166;49.926;8.608;2023-11-21T10:08:03;12.30;69.50
4306;DHT22;2166;49.926;8.608;2023-11-21T10:10:35;12.40;70.10
4306;DHT22;2166;49.926;8.608;2023-11-21T10:13:10;12.50;71.20
4306;DHT22;2166;49.926;8.608;2023-11-21T10:15:41;12.60;70.80
4306;DHT22;2166;49.926;8.608;2023-11-21T10:18:17;12.80;71.50
4306;DHT22;2166;49.926;8.608;2023-11-21T10:20:45;12.90;71.50
4306;DHT22;2166;49.926;8.608;2023-11-21T10:23:20;13.00;72.00
4306;DHT22;2166;49.926;8.608;2023-11-21T10:25:52;13.40;72.80
4306;DHT22;2166;49.926;8.608;2023-11-21T10:28:26;13.60;73.10
4306;DHT22;2166;49.926;8.608;2023-11-21T10:30:55;14.00;75.10
4306;DHT22;2166;49.926;8.608;2023-11-21T10:33:27;14.20;73.80
4306;DHT22;2166;49.926;8.608;2023-11-21T10:35:56;14.60;75.30
4306;DHT22;2166;49.926;8.608;2023-11-21T10:38:25;14.70;75.50
4306;DHT22;2166;49.926;8.608;2023-11-21T10:40:56;14.90;75.70
4306;DHT22;2166;49.926;8.608;2023-11-21T10:43:25;15.10;76.40
4306;DHT22;2166;49.926;8.608;2023-11-21T10:45:57;15.10;76.50
4306;DHT22;2166;49.926;8.608;2023-11-21T10:48:28;15.00;76.40
4306;DHT22;2166;49.926;8.608;2023-11-21T10:50:57;14.90;76.60
4306;DHT22;2166;49.926;8.608;2023-11-21T10:53:29;14.80;76.30
4306;DHT22;2166;49.926;8.608;2023-11-21T10:56:05;14.50;76.40
4306;DHT22;2166;49.926;8.608;2023-11-21T10:58:35;14.20;75.50
4306;DHT22;2166;49.926;8.608;2023-11-21T11:01:06;13.90;75.40
4306;DHT22;2166;49.926;8.608;2023-11-21T11:03:39;13.90;72.80
4306;DHT22;2166;49.926;8.608;2023-11-21T11:06:08;14.90;75.40
4306;DHT22;2166;49.926;8.608;2023-11-21T11:08:39;16.60;76.90
4306;DHT22;2166;49.926;8.608;2023-11-21T11:11:10;18.20;76.50
4306;DHT22;2166;49.926;8.608;2023-11-21T11:13:43;19.60;74.60
4306;DHT22;2166;49.926;8.608;2023-11-21T11:16:13;20.80;72.20
4306;DHT22;2166;49.926;8.608;2023-11-21T11:18:45;22.00;69.40
4306;DHT22;2166;49.926;8.608;2023-11-21T11:21:23;22.90;65.80
4306;DHT22;2166;49.926;8.608;2023-11-21T11:24:05;23.10;64.50
4306;DHT22;2166;49.926;8.608;2023-11-21T11:26:50;24.10;62.20
4306;DHT22;2166;49.926;8.608;2023-11-21T11:29:31;25.20;60.20
4306;DHT22;2166;49.926;8.608;2023-11-21T11:32:09;26.00;55.40
4306;DHT22;2166;49.926;8.608;2023-11-21T11:34:46;26.20;54.70
4306;DHT22;2166;49.926;8.608;2023-11-21T11:37:17;26.60;54.70
4306;DHT22;2166;49.926;8.608;2023-11-21T11:39:46;26.80;51.80
4306;DHT22;2166;49.926;8.608;2023-11-21T11:42:17;27.30;52.40
4306;DHT22;2166;49.926;8.608;2023-11-21T11:44:48;27.60;52.40
4306;DHT22;2166;49.926;8.608;2023-11-21T11:47:22;27.00;50.70
4306;DHT22;2166;49.926;8.608;2023-11-21T11:49:57;26.40;49.70
4306;DHT22;2166;49.926;8.608;2023-11-21T11:52:38;25.70;51.50
4306;DHT22;2166;49.926;8.608;2023-11-21T11:55:09;25.10;52.20
4306;DHT22;2166;49.926;8.608;2023-11-21T11:57:47;24.40;53.60
4306;DHT22;2166;49.926;8.608;2023-11-21T12:00:19;23.10;58.10
4306;DHT22;2166;49.926;8.608;2023-11-21T12:02:51;22.30;60.70
4306;DHT22;2166;49.926;8.608;2023-11-21T12:05:21;22.10;61.60
4306;DHT22;2166;49.926;8.608;2023-11-21T12:07:51;21.70;63.60
4306;DHT22;2166;49.926;8.608;2023-11-21T12:10:23;21.20;61.60
4306;DHT22;2166;49.926;8.608;2023-11-21T12:12:56;21.00;61.60
4306;DHT22;2166;49.926;8.608;2023-11-21T12:15:25;20.50;65.20
4306;DHT22;2166;49.926;8.608;2023-11-21T12:17:57;20.00;62.20
4306;DHT22;2166;49.926;8.608;2023-11-21T12:20:26;19.40;65.60
4306;DHT22;2166;49.926;8.608;2023-11-21T12:22:56;18.70;64.40
4306;DHT22;2166;49.926;8.608;2023-11-21T12:25:27;18.30;70.00
4306;DHT22;2166;49.926;8.608;2023-11-21T12:28:01;17.90;68.00
4306;DHT22;2166;49.926;8.608;2023-11-21T12:30:31;17.70;68.20
4306;DHT22;2166;49.926;8.608;2023-11-21T12:33:00;17.40;72.70
4306;DHT22;2166;49.926;8.608;2023-11-21T12:35:31;17.20;72.40
4306;DHT22;2166;49.926;8.608;2023-11-21T12:38:02;16.90;72.30
4306;DHT22;2166;49.926;8.608;2023-11-21T12:40:31;16.60;73.70
4306;DHT22;2166;49.926;8.608;2023-11-21T12:43:02;16.50;73.70
4306;DHT22;2166;49.926;8.608;2023-11-21T12:45:31;16.20;75.30
4306;DHT22;2166;49.926;8.608;2023-11-21T12:48:02;15.70;74.50
4306;DHT22;2166;49.926;8.608;2023-11-21T12:50:37;15.30;77.60
4306;DHT22;2166;49.926;8.608;2023-11-21T12:53:08;15.10;76.70
4306;DHT22;2166;49.926;8.608;2023-11-21T12:55:37;14.90;77.90
4306;DHT22;2166;49.926;8.608;2023-11-21T12:58:09;14.70;76.80
4306;DHT22;2166;49.926;8.608;2023-11-21T13:00:41;14.60;77.40
4306;DHT22;2166;49.926;8.608;2023-11-21T13:03:12;14.50;77.50
4306;DHT22;2166;49.926;8.608;2023-11-21T13:05:47;14.40;77.30
4306;DHT22;2166;49.926;8.608;2023-11-21T13:08:19;14.40;77.70
4306;DHT22;2166;49.926;8.608;2023-11-21T13:10:52;14.30;77.20
4306;DHT22;2166;49.926;8.608;2023-11-21T13:13:24;14.20;78.00
4306;DHT22;2166;49.926;8.608;2023-11-21T13:15:56;14.10;77.70
4306;DHT22;2166;49.926;8.608;2023-11-21T13:18:29;14.00;78.00
4306;DHT22;2166;49.926;8.608;2023-11-21T13:21:03;13.80;77.60
4306;DHT22;2166;49.926;8.608;2023-11-21T13:23:37;13.70;78.00
4306;DHT22;2166;49.926;8.608;2023-11-21T13:26:06;13.60;77.90
4306;DHT22;2166;49.926;8.608;2023-11-21T13:28:40;13.60;77.90
4306;DHT22;2166;49.926;8.608;2023-11-21T13:31:13;13.70;78.00
4306;DHT22;2166;49.926;8.608;2023-11-21T13:33:53;13.60;78.00
4306;DHT22;2166;49.926;8.608;2023-11-21T13:36:25;13.60;77.90
4306;DHT22;2166;49.926;8.608;2023-11-21T13:38:59;13.60;77.60
4306;DHT22;2166;49.926;8.608;2023-11-21T13:41:32;13.60;77.60
4306;DHT22;2166;49.926;8.608;2023-11-21T13:44:02;13.60;78.00
4306;DHT22;2166;49.926;8.608;2023-11-21T13:46:43;13.60;77.70
4306;DHT22;2166;49.926;8.608;2023-11-21T13:49:13;13.80;77.70
4306;DHT22;2166;49.926;8.608;2023-11-21T13:51:43;13.90;77.60
4306;DHT22;2166;49.926;8.608;2023-11-21T13:54:15;14.00;77.60
4306;DHT22;2166;49.926;8.608;2023-11-21T13:56:46;14.00;77.60
4306;DHT22;2166;49.926;8.608;2023-11-21T13:59:19;13.90;77.70
4306;DHT22;2166;49.926;8.608;2023-11-21T14:01:52;13.70;77.30
4306;DHT22;2166;49.926;8.608;2023-11-21T14:04:25;13.60;77.60
4306;DHT22;2166;49.926;8.608;2023-11-21T14:07:14;13.60;77.70
4306;DHT22;2166;49.926;8.608;2023-11-21T14:09:53;13.50;77.70
4306;DHT22;2166;49.926;8.608;2023-11-21T14:12:23;13.40;77.80
4306;DHT22;2166;49.926;8.608;2023-11-21T14:14:53;13.40;77.90
4306;DHT22;2166;49.926;8.608;2023-11-21T14:17:24;13.30;77.80
4306;DHT22;2166;49.926;8.608;2023-11-21T14:19:54;13.20;77.80
4306;DHT22;2166;49.926;8.608;2023-11-21T14:22:23;13.20;77.70
4306;DHT22;2166;49.926;8.608;2023-11-21T14:24:54;13.10;77.90
4306;DHT22;2166;49.926;8.608;2023-11-21T14:27:25;13.00;77.90
4306;DHT22;2166;49.926;8.608;2023-11-21T14:29:55;13.00;77.70
4306;DHT22;2166;49.926;8.608;2023-11-21T14:32:25;12.90;77.80
4306;DHT22;2166;49.926;8.608;2023-11-21T14:34:54;12.80;77.80
4306;DHT22;2166;49.926;8.608;2023-11-21T14:37:22;12.70;77.90
4306;DHT22;2166;49.926;8.608;2023-11-21T14:39:51;12.70;77.50
4306;DHT22;2166;49.926;8.608;2023-11-21T14:42:20;12.50;76.90
4306;DHT22;2166;49.926;8.608;2023-11-21T14:44:53;12.50;76.40
4306;DHT22;2166;49.926;8.608;2023-11-21T14:47:28;12.30;76.20
4306;DHT22;2166;49.926;8.608;2023-11-21T14:49:59;12.30;75.70
4306;DHT22;2166;49.926;8.608;2023-11-21T14:52:33;12.20;74.50
4306;DHT22;2166;49.926;8.608;2023-11-21T14:55:03;12.10;74.10
4306;DHT22;2166;49.926;8.608;2023-11-21T14:57:53;12.10;72.90
4306;DHT22;2166;49.926;8.608;2023-11-21T15:00:21;12.10;73.20
4306;DHT22;2166;49.926;8.608;2023-11-21T15:03:15;12.20;72.30
4306;DHT22;2166;49.926;8.608;2023-11-21T15:06:04;12.10;73.00
4306;DHT22;2166;49.926;8.608;2023-11-21T15:08:50;12.10;73.20
4306;DHT22;2166;49.926;8.608;2023-11-21T15:11:23;12.00;72.70
4306;DHT22;2166;49.926;8.608;2023-11-21T15:13:58;11.90;73.00
4306;DHT22;2166;49.926;8.608;2023-11-21T15:16:28;11.80;72.70
4306;DHT22;2166;49.926;8.608;2023-11-21T15:18:58;11.60;70.90
4306;DHT22;2166;49.926;8.608;2023-11-21T15:21:27;11.50;71.50
4306;DHT22;2166;49.926;8.608;2023-11-21T15:23:55;11.40;71.10
4306;DHT22;2166;49.926;8.608;2023-11-21T15:26:24;11.30;71.20
4306;DHT22;2166;49.926;8.608;2023-11-21T15:28:56;11.20;71.20
4306;DHT22;2166;49.926;8.608;2023-11-21T15:31:25;11.10;71.80
4306;DHT22;2166;49.926;8.608;2023-11-21T15:33:53;11.00;71.60
4306;DHT22;2166;49.926;8.608;2023-11-21T15:36:29;11.00;71.70
4306;DHT22;2166;49.926;8.608;2023-11-21T15:38:57;10.90;71.30
4306;DHT22;2166;49.926;8.608;2023-11-21T15:41:25;10.90;71.00
4306;DHT22;2166;49.926;8.608;2023-11-21T15:43:54;10.90;70.80
4306;DHT22;2166;49.926;8.608;2023-11-21T15:46:23;10.80;69.80
4306;DHT22;2166;49.926;8.608;2023-11-21T15:49:10;10.80;69.40
4306;DHT22;2166;49.926;8.608;2023-11-21T15:51:44;10.80;69.10
4306;DHT22;2166;49.926;8.608;2023-11-21T15:54:14;10.80;69.10
4306;DHT22;2166;49.926;8.608;2023-11-21T15:56:42;10.70;68.70
4306;DHT22;2166;49.926;8.608;2023-11-21T15:59:11;10.70;68.20
4306;DHT22;2166;49.926;8.608;2023-11-21T16:01:40;10.60;67.80
4306;DHT22;2166;49.926;8.608;2023-11-21T16:04:11;10.50;67.60
4306;DHT22;2166;49.926;8.608;2023-11-21T16:06:41;10.50;67.40
4306;DHT22;2166;49.926;8.608;2023-11-21T16:09:11;10.40;67.30
4306;DHT22;2166;49.926;8.608;2023-11-21T16:11:49;10.40;67.40
4306;DHT22;2166;49.926;8.608;2023-11-21T16:14:24;10.40;67.20
4306;DHT22;2166;49.926;8.608;2023-11-21T16:16:59;10.40;67.30
4306;DHT22;2166;49.926;8.608;2023-11-21T16:19:27;10.40;67.40
4306;DHT22;2166;49.926;8.608;2023-11-21T16:21:56;10.40;67.40
4306;DHT22;2166;49.926;8.608;2023-11-21T16:24:27;10.30;67.20
4306;DHT22;2166;49.926;8.608;2023-11-21T16:26:57;10.40;67.40